sensor_id;sensor_type;location;lat;lon;timestamp;P1;durP1;ratioP1;P2;durP2;ratioP2
80776;SDS011;70169;51.262;6.336;2023-11-21T00:02:03;9.15;;;5.57;;
80776;SDS011;70169;51.262;6.336;2023-11-21T00:04:19;7.53;;;4.50;;
80776;SDS011;70169;51.262;6.336;2023-11-21T00:06:35;7.85;;;3.72;;
80776;SDS011;70169;51.262;6.336;2023-11-21T00:08:50;7.90;;;4.53;;
80776;SDS011;70169;51.262;6.336;2023-11-21T00:11:06;8.43;;;4.68;;
80776;SDS011;70169;51.262;6.336;2023-11-21T00:13:21;7.43;;;4.37;;
80776;SDS011;70169;51.262;6.336;2023-11-21T00:15:36;7.70;;;4.22;;
80776;SDS011;70169;51.262;6.336;2023-11-21T00:17:52;8.95;;;4.68;;
80776;SDS011;70169;51.262;6.336;2023-11-21T00:20:07;7.90;;;3.70;;
80776;SDS011;70169;51.262;6.336;2023-11-21T00:22:23;7.43;;;3.85;;
80776;SDS011;70169;51.262;6.336;2023-11-21T00:24:39;9.55;;;4.80;;
80776;SDS011;70169;51.262;6.336;2023-11-21T00:26:54;8.85;;;4.45;;
80776;SDS011;70169;51.262;6.336;2023-11-21T00:29:10;8.30;;;4.53;;
80776;SDS011;70169;51.262;6.336;2023-11-21T00:31:26;7.90;;;4.32;;
80776;SDS011;70169;51.262;6.336;2023-11-21T00:33:41;7.65;;;4.95;;
80776;SDS011;70169;51.262;6.336;2023-11-21T00:35:56;8.20;;;4.38;;
80776;SDS011;70169;51.262;6.336;2023-11-21T00:38:12;8.52;;;4.68;;
80776;SDS011;70169;51.262;6.336;2023-11-21T00:40:27;7.93;;;4.32;;
80776;SDS011;70169;51.262;6.336;2023-11-21T00:42:43;8.13;;;4.32;;
80776;SDS011;70169;51.262;6.336;2023-11-21T00:44:59;7.45;;;4.60;;
80776;SDS011;70169;51.262;6.336;2023-11-21T00:47:14;7.40;;;4.10;;
80776;SDS011;70169;51.262;6.336;2023-11-21T00:49:30;6.80;;;3.85;;
80776;SDS011;70169;51.262;6.336;2023-11-21T00:51:45;6.78;;;4.18;;
80776;SDS011;70169;51.262;6.336;2023-11-21T00:54:00;9.47;;;4.87;;
80776;SDS011;70169;51.262;6.336;2023-11-21T00:56:16;6.75;;;3.95;;
80776;SDS011;70169;51.262;6.336;2023-11-21T00:58:31;8.93;;;4.68;;
80776;SDS011;70169;51.262;6.336;2023-11-21T01:00:47;9.43;;;4.07;;
80776;SDS011;70169;51.262;6.336;2023-11-21T01:03:03;7.10;;;4.32;;
80776;SDS011;70169;51.262;6.336;2023-11-21T01:05:18;6.38;;;3.58;;
80776;SDS011;70169;51.262;6.336;2023-11-21T01:07:35;8.48;;;4.38;;
80776;SDS011;70169;51.262;6.336;2023-11-21T01:09:51;6.03;;;3.45;;
80776;SDS011;70169;51.262;6.336;2023-11-21T01:12:06;8.70;;;4.93;;
80776;SDS011;70169;51.262;6.336;2023-11-21T01:14:22;8.02;;;4.47;;
80776;SDS011;70169;51.262;6.336;2023-11-21T01:16:38;7.90;;;4.55;;
80776;SDS011;70169;51.262;6.336;2023-11-21T01:18:53;8.88;;;4.90;;
80776;SDS011;70169;51.262;6.336;2023-11-21T01:21:08;9.30;;;4.72;;
80776;SDS011;70169;51.262;6.336;2023-11-21T01:23:24;10.38;;;6.03;;
80776;SDS011;70169;51.262;6.336;2023-11-21T01:25:39;9.68;;;5.60;;
80776;SDS011;70169;51.262;6.336;2023-11-21T01:27:55;10.65;;;5.85;;
80776;SDS011;70169;51.262;6.336;2023-11-21T01:30:11;11.18;;;5.78;;
80776;SDS011;70169;51.262;6.336;2023-11-21T01:32:26;10.32;;;5.50;;
80776;SDS011;70169;51.262;6.336;2023-11-21T01:34:43;11.00;;;5.32;;
80776;SDS011;70169;51.262;6.336;2023-11-21T01:36:59;12.95;;;7.90;;
80776;SDS011;70169;51.262;6.336;2023-11-21T01:39:15;12.57;;;6.63;;
80776;SDS011;70169;51.262;6.336;2023-11-21T01:41:31;12.07;;;6.22;;
80776;SDS011;70169;51.262;6.336;2023-11-21T01:43:46;11.23;;;7.03;;
80776;SDS011;70169;51.262;6.336;2023-11-21T01:46:02;11.50;;;6.80;;
80776;SDS011;70169;51.262;6.336;2023-11-21T01:48:17;12.60;;;7.00;;
80776;SDS011;70169;51.262;6.336;2023-11-21T01:50:33;11.30;;;6.15;;
80776;SDS011;70169;51.262;6.336;2023-11-21T01:52:48;13.50;;;6.90;;
80776;SDS011;70169;51.262;6.336;2023-11-21T01:55:04;11.38;;;6.20;;
80776;SDS011;70169;51.262;6.336;2023-11-21T01:57:23;13.27;;;6.25;;
80776;SDS011;70169;51.262;6.336;2023-11-21T01:59:39;11.43;;;5.95;;
80776;SDS011;70169;51.262;6.336;2023-11-21T02:01:57;7.93;;;4.80;;
80776;SDS011;70169;51.262;6.336;2023-11-21T02:04:13;10.07;;;5.63;;
80776;SDS011;70169;51.262;6.336;2023-11-21T02:06:29;9.15;;;4.88;;
80776;SDS011;70169;51.262;6.336;2023-11-21T02:08:46;8.05;;;4.55;;
80776;SDS011;70169;51.262;6.336;2023-11-21T02:11:02;8.63;;;4.75;;
80776;SDS011;70169;51.262;6.336;2023-11-21T02:13:17;8.13;;;4.10;;
80776;SDS011;70169;51.262;6.336;2023-11-21T02:15:33;6.85;;;4.65;;
80776;SDS011;70169;51.262;6.336;2023-11-21T02:17:49;13.60;;;7.05;;
80776;SDS011;70169;51.262;6.336;2023-11-21T02:20:06;11.52;;;6.32;;
80776;SDS011;70169;51.262;6.336;2023-11-21T02:22:22;9.50;;;5.82;;
80776;SDS011;70169;51.262;6.336;2023-11-21T02:24:41;11.18;;;5.35;;
80776;SDS011;70169;51.262;6.336;2023-11-21T02:26:57;11.45;;;5.90;;
80776;SDS011;70169;51.262;6.336;2023-11-21T02:29:13;11.82;;;6.10;;
80776;SDS011;70169;51.262;6.336;2023-11-21T02:31:28;11.82;;;6.90;;
80776;SDS011;70169;51.262;6.336;2023-11-21T02:33:45;15.13;;;7.28;;
80776;SDS011;70169;51.262;6.336;2023-11-21T02:36:00;10.70;;;6.53;;
80776;SDS011;70169;51.262;6.336;2023-11-21T02:38:17;9.77;;;5.65;;
80776;SDS011;70169;51.262;6.336;2023-11-21T02:40:32;10.43;;;5.45;;
80776;SDS011;70169;51.262;6.336;2023-11-21T02:42:47;10.10;;;5.38;;
80776;SDS011;70169;51.262;6.336;2023-11-21T02:45:03;8.90;;;5.03;;
80776;SDS011;70169;51.262;6.336;2023-11-21T02:47:20;10.90;;;5.13;;
80776;SDS011;70169;51.262;6.336;2023-11-21T02:49:35;9.27;;;4.85;;
80776;SDS011;70169;51.262;6.336;2023-11-21T02:51:51;9.38;;;4.68;;
80776;SDS011;70169;51.262;6.336;2023-11-21T02:54:06;12.32;;;4.65;;
80776;SDS011;70169;51.262;6.336;2023-11-21T02:56:23;10.75;;;4.93;;
80776;SDS011;70169;51.262;6.336;2023-11-21T02:58:42;8.73;;;5.18;;
80776;SDS011;70169;51.262;6.336;2023-11-21T03:00:58;10.85;;;6.03;;
80776;SDS011;70169;51.262;6.336;2023-11-21T03:03:14;12.05;;;6.68;;
80776;SDS011;70169;51.262;6.336;2023-11-21T03:05:29;11.00;;;6.28;;
80776;SDS011;70169;51.262;6.336;2023-11-21T03:07:45;8.45;;;5.18;;
80776;SDS011;70169;51.262;6.336;2023-11-21T03:10:00;8.60;;;5.43;;
80776;SDS011;70169;51.262;6.336;2023-11-21T03:12:16;8.05;;;4.43;;
80776;SDS011;70169;51.262;6.336;2023-11-21T03:14:31;10.00;;;4.90;;
80776;SDS011;70169;51.262;6.336;2023-11-21T03:16:47;7.67;;;4.57;;
80776;SDS011;70169;51.262;6.336;2023-11-21T03:19:04;8.35;;;4.50;;
80776;SDS011;70169;51.262;6.336;2023-11-21T03:21:20;8.77;;;4.28;;
80776;SDS011;70169;51.262;6.336;2023-11-21T03:23:36;9.77;;;4.83;;
80776;SDS011;70169;51.262;6.336;2023-11-21T03:25:52;8.43;;;4.72;;
80776;SDS011;70169;51.262;6.336;2023-11-21T03:28:07;8.70;;;4.78;;
80776;SDS011;70169;51.262;6.336;2023-11-21T03:30:23;13.82;;;6.63;;
80776;SDS011;70169;51.262;6.336;2023-11-21T03:32:39;13.00;;;7.45;;
80776;SDS011;70169;51.262;6.336;2023-11-21T03:34:55;13.88;;;7.55;;
80776;SDS011;70169;51.262;6.336;2023-11-21T03:37:12;10.73;;;6.38;;
80776;SDS011;70169;51.262;6.336;2023-11-21T03:39:28;10.98;;;6.18;;
80776;SDS011;70169;51.262;6.336;2023-11-21T03:41:44;14.05;;;6.88;;
80776;SDS011;70169;51.262;6.336;2023-11-21T03:44:00;11.57;;;6.28;;
80776;SDS011;70169;51.262;6.336;2023-11-21T03:46:15;13.23;;;7.68;;
80776;SDS011;70169;51.262;6.336;2023-11-21T03:48:30;13.40;;;6.70;;
80776;SDS011;70169;51.262;6.336;2023-11-21T03:50:47;14.00;;;7.45;;
80776;SDS011;70169;51.262;6.336;2023-11-21T03:53:02;11.57;;;6.30;;
80776;SDS011;70169;51.262;6.336;2023-11-21T03:55:18;13.23;;;6.18;;
80776;SDS011;70169;51.262;6.336;2023-11-21T03:57:34;13.07;;;6.25;;
80776;SDS011;70169;51.262;6.336;2023-11-21T03:59:50;12.30;;;6.47;;
80776;SDS011;70169;51.262;6.336;2023-11-21T04:02:06;15.02;;;8.40;;
80776;SDS011;70169;51.262;6.336;2023-11-21T04:04:22;16.63;;;9.02;;
80776;SDS011;70169;51.262;6.336;2023-11-21T04:06:38;12.32;;;7.35;;
80776;SDS011;70169;51.262;6.336;2023-11-21T04:08:53;11.35;;;6.10;;
80776;SDS011;70169;51.262;6.336;2023-11-21T04:11:08;13.95;;;7.47;;
80776;SDS011;70169;51.262;6.336;2023-11-21T04:13:26;13.07;;;6.90;;
80776;SDS011;70169;51.262;6.336;2023-11-21T04:15:42;13.52;;;8.07;;
80776;SDS011;70169;51.262;6.336;2023-11-21T04:17:57;15.52;;;8.15;;
80776;SDS011;70169;51.262;6.336;2023-11-21T04:20:13;14.77;;;7.72;;
80776;SDS011;70169;51.262;6.336;2023-11-21T04:22:29;13.93;;;7.57;;
80776;SDS011;70169;51.262;6.336;2023-11-21T04:24:45;14.55;;;8.13;;
80776;SDS011;70169;51.262;6.336;2023-11-21T04:27:00;14.93;;;8.52;;
80776;SDS011;70169;51.262;6.336;2023-11-21T04:29:17;13.70;;;7.85;;
80776;SDS011;70169;51.262;6.336;2023-11-21T04:31:33;12.13;;;6.60;;
80776;SDS011;70169;51.262;6.336;2023-11-21T04:33:48;15.00;;;8.05;;
80776;SDS011;70169;51.262;6.336;2023-11-21T04:36:04;13.63;;;6.95;;
80776;SDS011;70169;51.262;6.336;2023-11-21T04:38:19;14.63;;;7.07;;
80776;SDS011;70169;51.262;6.336;2023-11-21T04:40:35;16.75;;;8.35;;
80776;SDS011;70169;51.262;6.336;2023-11-21T04:42:50;13.00;;;7.32;;
80776;SDS011;70169;51.262;6.336;2023-11-21T04:45:06;10.98;;;6.50;;
80776;SDS011;70169;51.262;6.336;2023-11-21T04:47:26;14.77;;;7.10;;
80776;SDS011;70169;51.262;6.336;2023-11-21T04:49:42;15.65;;;8.35;;
80776;SDS011;70169;51.262;6.336;2023-11-21T04:51:58;14.13;;;6.95;;
80776;SDS011;70169;51.262;6.336;2023-11-21T04:54:14;17.70;;;8.45;;
80776;SDS011;70169;51.262;6.336;2023-11-21T04:56:29;19.23;;;9.20;;
80776;SDS011;70169;51.262;6.336;2023-11-21T04:58:45;23.67;;;11.25;;
80776;SDS011;70169;51.262;6.336;2023-11-21T05:01:00;27.73;;;12.07;;
80776;SDS011;70169;51.262;6.336;2023-11-21T05:03:16;22.45;;;10.85;;
80776;SDS011;70169;51.262;6.336;2023-11-21T05:05:31;21.45;;;10.25;;
80776;SDS011;70169;51.262;6.336;2023-11-21T05:07:47;19.25;;;8.95;;
80776;SDS011;70169;51.262;6.336;2023-11-21T05:10:04;20.15;;;9.73;;
80776;SDS011;70169;51.262;6.336;2023-11-21T05:12:26;19.50;;;9.65;;
80776;SDS011;70169;51.262;6.336;2023-11-21T05:14:41;19.20;;;9.23;;
80776;SDS011;70169;51.262;6.336;2023-11-21T05:16:57;21.70;;;10.37;;
80776;SDS011;70169;51.262;6.336;2023-11-21T05:21:29;17.67;;;7.95;;
80776;SDS011;70169;51.262;6.336;2023-11-21T05:23:48;14.65;;;7.15;;
80776;SDS011;70169;51.262;6.336;2023-11-21T05:26:03;12.40;;;6.72;;
80776;SDS011;70169;51.262;6.336;2023-11-21T05:28:19;16.63;;;7.78;;
80776;SDS011;70169;51.262;6.336;2023-11-21T05:30:34;16.00;;;7.60;;
80776;SDS011;70169;51.262;6.336;2023-11-21T05:32:50;14.75;;;7.35;;
80776;SDS011;70169;51.262;6.336;2023-11-21T05:35:05;14.60;;;7.38;;
80776;SDS011;70169;51.262;6.336;2023-11-21T05:37:25;11.93;;;6.40;;
80776;SDS011;70169;51.262;6.336;2023-11-21T05:39:41;17.08;;;8.73;;
80776;SDS011;70169;51.262;6.336;2023-11-21T05:41:57;18.45;;;8.38;;
80776;SDS011;70169;51.262;6.336;2023-11-21T05:44:12;22.73;;;10.57;;
80776;SDS011;70169;51.262;6.336;2023-11-21T05:46:29;22.35;;;9.40;;
80776;SDS011;70169;51.262;6.336;2023-11-21T05:48:44;22.73;;;10.32;;
80776;SDS011;70169;51.262;6.336;2023-11-21T05:51:01;25.88;;;11.45;;
80776;SDS011;70169;51.262;6.336;2023-11-21T05:53:16;24.65;;;10.90;;
80776;SDS011;70169;51.262;6.336;2023-11-21T05:55:32;27.35;;;11.00;;
80776;SDS011;70169;51.262;6.336;2023-11-21T05:57:48;20.95;;;10.80;;
80776;SDS011;70169;51.262;6.336;2023-11-21T06:00:04;20.35;;;8.88;;
80776;SDS011;70169;51.262;6.336;2023-11-21T06:02:50;19.73;;;7.88;;
80776;SDS011;70169;51.262;6.336;2023-11-21T06:05:09;19.33;;;8.90;;
80776;SDS011;70169;51.262;6.336;2023-11-21T06:07:25;23.15;;;10.52;;
80776;SDS011;70169;51.262;6.336;2023-11-21T06:09:42;24.42;;;9.98;;
80776;SDS011;70169;51.262;6.336;2023-11-21T06:11:57;22.60;;;9.13;;
80776;SDS011;70169;51.262;6.336;2023-11-21T06:14:13;16.08;;;7.80;;
80776;SDS011;70169;51.262;6.336;2023-11-21T06:16:30;23.95;;;10.25;;
80776;SDS011;70169;51.262;6.336;2023-11-21T06:18:45;20.30;;;9.02;;
80776;SDS011;70169;51.262;6.336;2023-11-21T06:21:01;19.05;;;8.48;;
80776;SDS011;70169;51.262;6.336;2023-11-21T06:23:16;21.35;;;8.75;;
80776;SDS011;70169;51.262;6.336;2023-11-21T06:25:32;23.23;;;10.15;;
80776;SDS011;70169;51.262;6.336;2023-11-21T06:27:51;27.73;;;11.52;;
80776;SDS011;70169;51.262;6.336;2023-11-21T06:30:08;25.23;;;10.27;;
80776;SDS011;70169;51.262;6.336;2023-11-21T06:32:24;22.98;;;10.40;;
80776;SDS011;70169;51.262;6.336;2023-11-21T06:34:41;33.35;;;14.88;;
80776;SDS011;70169;51.262;6.336;2023-11-21T06:36:56;23.67;;;11.93;;
80776;SDS011;70169;51.262;6.336;2023-11-21T06:39:12;30.48;;;13.82;;
80776;SDS011;70169;51.262;6.336;2023-11-21T06:41:30;39.70;;;16.88;;
80776;SDS011;70169;51.262;6.336;2023-11-21T06:43:45;35.55;;;13.63;;
80776;SDS011;70169;51.262;6.336;2023-11-21T06:46:01;25.25;;;12.18;;
80776;SDS011;70169;51.262;6.336;2023-11-21T06:48:16;23.15;;;10.70;;
80776;SDS011;70169;51.262;6.336;2023-11-21T06:50:32;28.73;;;13.25;;
80776;SDS011;70169;51.262;6.336;2023-11-21T06:52:47;23.50;;;11.23;;
80776;SDS011;70169;51.262;6.336;2023-11-21T06:55:03;24.13;;;12.20;;
80776;SDS011;70169;51.262;6.336;2023-11-21T06:57:19;31.02;;;15.05;;
80776;SDS011;70169;51.262;6.336;2023-11-21T06:59:35;26.13;;;11.20;;
80776;SDS011;70169;51.262;6.336;2023-11-21T07:01:51;27.20;;;11.05;;
80776;SDS011;70169;51.262;6.336;2023-11-21T07:04:06;21.92;;;9.50;;
80776;SDS011;70169;51.262;6.336;2023-11-21T07:06:22;25.13;;;12.55;;
80776;SDS011;70169;51.262;6.336;2023-11-21T07:08:37;27.60;;;13.43;;
80776;SDS011;70169;51.262;6.336;2023-11-21T07:10:52;32.50;;;16.37;;
80776;SDS011;70169;51.262;6.336;2023-11-21T07:13:08;31.85;;;17.35;;
80776;SDS011;70169;51.262;6.336;2023-11-21T07:15:27;28.20;;;14.95;;
80776;SDS011;70169;51.262;6.336;2023-11-21T07:17:43;27.25;;;13.07;;
80776;SDS011;70169;51.262;6.336;2023-11-21T07:19:59;28.25;;;14.10;;
80776;SDS011;70169;51.262;6.336;2023-11-21T07:22:14;31.77;;;17.23;;
80776;SDS011;70169;51.262;6.336;2023-11-21T07:24:30;31.45;;;15.95;;
80776;SDS011;70169;51.262;6.336;2023-11-21T07:26:46;29.15;;;14.55;;
80776;SDS011;70169;51.262;6.336;2023-11-21T07:29:03;25.63;;;12.43;;
80776;SDS011;70169;51.262;6.336;2023-11-21T07:31:18;23.85;;;11.38;;
80776;SDS011;70169;51.262;6.336;2023-11-21T07:33:34;19.33;;;9.45;;
80776;SDS011;70169;51.262;6.336;2023-11-21T07:35:50;20.13;;;8.23;;
80776;SDS011;70169;51.262;6.336;2023-11-21T07:38:05;30.55;;;16.15;;
80776;SDS011;70169;51.262;6.336;2023-11-21T07:40:20;29.27;;;16.90;;
80776;SDS011;70169;51.262;6.336;2023-11-21T07:42:37;29.60;;;17.75;;
80776;SDS011;70169;51.262;6.336;2023-11-21T07:44:53;24.98;;;14.70;;
80776;SDS011;70169;51.262;6.336;2023-11-21T07:47:08;22.38;;;12.02;;
80776;SDS011;70169;51.262;6.336;2023-11-21T07:49:24;22.20;;;11.25;;
80776;SDS011;70169;51.262;6.336;2023-11-21T07:51:39;16.48;;;8.40;;
80776;SDS011;70169;51.262;6.336;2023-11-21T07:53:55;21.67;;;13.65;;
80776;SDS011;70169;51.262;6.336;2023-11-21T07:56:10;16.88;;;8.90;;
80776;SDS011;70169;51.262;6.336;2023-11-21T07:58:26;16.15;;;8.05;;
80776;SDS011;70169;51.262;6.336;2023-11-21T08:00:41;14.20;;;7.28;;
80776;SDS011;70169;51.262;6.336;2023-11-21T08:02:57;19.50;;;9.18;;
80776;SDS011;70169;51.262;6.336;2023-11-21T08:05:12;14.13;;;7.55;;
80776;SDS011;70169;51.262;6.336;2023-11-21T08:07:28;16.77;;;8.60;;
80776;SDS011;70169;51.262;6.336;2023-11-21T08:09:43;14.63;;;7.95;;
80776;SDS011;70169;51.262;6.336;2023-11-21T08:11:59;17.17;;;8.40;;
80776;SDS011;70169;51.262;6.336;2023-11-21T08:14:16;16.75;;;7.85;;
80776;SDS011;70169;51.262;6.336;2023-11-21T08:16:32;16.27;;;8.68;;
80776;SDS011;70169;51.262;6.336;2023-11-21T08:18:47;14.38;;;7.95;;
80776;SDS011;70169;51.262;6.336;2023-11-21T08:21:03;18.93;;;8.17;;
80776;SDS011;70169;51.262;6.336;2023-11-21T08:23:20;17.63;;;7.43;;
80776;SDS011;70169;51.262;6.336;2023-11-21T08:25:35;14.20;;;6.22;;
80776;SDS011;70169;51.262;6.336;2023-11-21T08:27:51;15.27;;;7.72;;
80776;SDS011;70169;51.262;6.336;2023-11-21T08:30:07;23.17;;;10.38;;
80776;SDS011;70169;51.262;6.336;2023-11-21T08:32:23;16.25;;;7.70;;
80776;SDS011;70169;51.262;6.336;2023-11-21T08:34:38;14.55;;;7.35;;
80776;SDS011;70169;51.262;6.336;2023-11-21T08:36:55;16.27;;;7.93;;
80776;SDS011;70169;51.262;6.336;2023-11-21T08:39:12;16.52;;;8.43;;
80776;SDS011;70169;51.262;6.336;2023-11-21T08:41:28;13.57;;;6.82;;
80776;SDS011;70169;51.262;6.336;2023-11-21T08:43:43;15.82;;;7.32;;
80776;SDS011;70169;51.262;6.336;2023-11-21T08:45:59;11.07;;;5.20;;
80776;SDS011;70169;51.262;6.336;2023-11-21T08:48:15;14.07;;;6.72;;
80776;SDS011;70169;51.262;6.336;2023-11-21T08:50:30;20.75;;;12.20;;
80776;SDS011;70169;51.262;6.336;2023-11-21T08:52:46;21.05;;;10.93;;
80776;SDS011;70169;51.262;6.336;2023-11-21T08:55:01;16.48;;;8.80;;
80776;SDS011;70169;51.262;6.336;2023-11-21T08:57:23;17.80;;;8.27;;
80776;SDS011;70169;51.262;6.336;2023-11-21T08:59:38;14.05;;;7.15;;
80776;SDS011;70169;51.262;6.336;2023-11-21T09:01:54;18.10;;;9.05;;
80776;SDS011;70169;51.262;6.336;2023-11-21T09:04:09;16.70;;;8.18;;
80776;SDS011;70169;51.262;6.336;2023-11-21T09:06:24;16.95;;;7.05;;
80776;SDS011;70169;51.262;6.336;2023-11-21T09:08:40;13.60;;;6.20;;
80776;SDS011;70169;51.262;6.336;2023-11-21T09:10:57;18.83;;;8.77;;
80776;SDS011;70169;51.262;6.336;2023-11-21T09:13:12;18.33;;;8.50;;
80776;SDS011;70169;51.262;6.336;2023-11-21T09:15:28;16.48;;;9.02;;
80776;SDS011;70169;51.262;6.336;2023-11-21T09:17:43;27.95;;;11.98;;
80776;SDS011;70169;51.262;6.336;2023-11-21T09:19:59;23.83;;;11.93;;
80776;SDS011;70169;51.262;6.336;2023-11-21T09:22:16;19.58;;;9.27;;
80776;SDS011;70169;51.262;6.336;2023-11-21T09:24:32;20.50;;;9.77;;
80776;SDS011;70169;51.262;6.336;2023-11-21T09:26:48;24.85;;;11.68;;
80776;SDS011;70169;51.262;6.336;2023-11-21T09:29:04;25.27;;;11.52;;
80776;SDS011;70169;51.262;6.336;2023-11-21T09:31:19;21.58;;;10.13;;
80776;SDS011;70169;51.262;6.336;2023-11-21T09:33:37;15.88;;;7.22;;
80776;SDS011;70169;51.262;6.336;2023-11-21T09:35:53;16.15;;;7.60;;
80776;SDS011;70169;51.262;6.336;2023-11-21T09:38:09;15.75;;;7.38;;
80776;SDS011;70169;51.262;6.336;2023-11-21T09:40:25;11.70;;;6.03;;
80776;SDS011;70169;51.262;6.336;2023-11-21T09:42:43;13.13;;;5.68;;
80776;SDS011;70169;51.262;6.336;2023-11-21T09:45:32;10.88;;;4.88;;
80776;SDS011;70169;51.262;6.336;2023-11-21T09:47:51;18.48;;;8.65;;
80776;SDS011;70169;51.262;6.336;2023-11-21T09:50:09;15.45;;;7.75;;
80776;SDS011;70169;51.262;6.336;2023-11-21T09:52:26;15.90;;;7.75;;
80776;SDS011;70169;51.262;6.336;2023-11-21T09:54:42;17.55;;;9.32;;
80776;SDS011;70169;51.262;6.336;2023-11-21T09:56:59;14.02;;;6.43;;
80776;SDS011;70169;51.262;6.336;2023-11-21T09:59:15;20.85;;;10.15;;
80776;SDS011;70169;51.262;6.336;2023-11-21T10:01:30;19.75;;;11.05;;
80776;SDS011;70169;51.262;6.336;2023-11-21T10:03:47;17.38;;;8.82;;
80776;SDS011;70169;51.262;6.336;2023-11-21T10:06:03;15.43;;;7.65;;
80776;SDS011;70169;51.262;6.336;2023-11-21T10:08:20;26.48;;;14.38;;
80776;SDS011;70169;51.262;6.336;2023-11-21T10:10:45;21.83;;;11.95;;
80776;SDS011;70169;51.262;6.336;2023-11-21T10:13:05;23.40;;;12.63;;
80776;SDS011;70169;51.262;6.336;2023-11-21T10:15:22;19.20;;;10.18;;
80776;SDS011;70169;51.262;6.336;2023-11-21T10:17:38;19.50;;;9.52;;
80776;SDS011;70169;51.262;6.336;2023-11-21T10:20:00;17.23;;;8.57;;
80776;SDS011;70169;51.262;6.336;2023-11-21T10:22:15;16.15;;;7.40;;
80776;SDS011;70169;51.262;6.336;2023-11-21T10:24:32;14.00;;;7.57;;
80776;SDS011;70169;51.262;6.336;2023-11-21T10:26:48;13.63;;;6.95;;
80776;SDS011;70169;51.262;6.336;2023-11-21T10:29:04;17.10;;;8.18;;
80776;SDS011;70169;51.262;6.336;2023-11-21T10:31:19;15.80;;;7.55;;
80776;SDS011;70169;51.262;6.336;2023-11-21T10:33:35;16.53;;;8.90;;
80776;SDS011;70169;51.262;6.336;2023-11-21T10:35:50;18.17;;;8.77;;
80776;SDS011;70169;51.262;6.336;2023-11-21T10:38:06;16.42;;;8.50;;
80776;SDS011;70169;51.262;6.336;2023-11-21T10:40:27;14.60;;;6.93;;
80776;SDS011;70169;51.262;6.336;2023-11-21T10:42:44;12.13;;;5.50;;
80776;SDS011;70169;51.262;6.336;2023-11-21T10:44:59;13.30;;;5.38;;
80776;SDS011;70169;51.262;6.336;2023-11-21T10:47:16;11.05;;;5.70;;
80776;SDS011;70169;51.262;6.336;2023-11-21T10:49:34;12.07;;;6.15;;
80776;SDS011;70169;51.262;6.336;2023-11-21T10:51:53;12.02;;;5.40;;
80776;SDS011;70169;51.262;6.336;2023-11-21T10:54:09;11.10;;;4.85;;
80776;SDS011;70169;51.262;6.336;2023-11-21T10:56:24;13.88;;;5.88;;
80776;SDS011;70169;51.262;6.336;2023-11-21T10:58:42;17.27;;;7.45;;
80776;SDS011;70169;51.262;6.336;2023-11-21T11:00:58;11.15;;;5.50;;
80776;SDS011;70169;51.262;6.336;2023-11-21T11:03:15;13.30;;;5.25;;
80776;SDS011;70169;51.262;6.336;2023-11-21T11:05:31;10.50;;;5.03;;
80776;SDS011;70169;51.262;6.336;2023-11-21T11:07:51;11.13;;;5.10;;
80776;SDS011;70169;51.262;6.336;2023-11-21T11:10:15;10.07;;;4.60;;
80776;SDS011;70169;51.262;6.336;2023-11-21T11:12:30;10.02;;;4.60;;
80776;SDS011;70169;51.262;6.336;2023-11-21T11:14:47;9.73;;;4.80;;
80776;SDS011;70169;51.262;6.336;2023-11-21T11:19:20;8.88;;;4.13;;
80776;SDS011;70169;51.262;6.336;2023-11-21T11:27:17;8.25;;;3.80;;
80776;SDS011;70169;51.262;6.336;2023-11-21T11:29:42;7.70;;;3.75;;
80776;SDS011;70169;51.262;6.336;2023-11-21T11:34:31;8.95;;;4.32;;
80776;SDS011;70169;51.262;6.336;2023-11-21T11:36:56;8.65;;;4.15;;
80776;SDS011;70169;51.262;6.336;2023-11-21T11:39:57;9.85;;;4.05;;
80776;SDS011;70169;51.262;6.336;2023-11-21T11:42:07;9.25;;;4.78;;
80776;SDS011;70169;51.262;6.336;2023-11-21T11:47:12;11.45;;;4.95;;
80776;SDS011;70169;51.262;6.336;2023-11-21T11:49:28;9.45;;;4.03;;
80776;SDS011;70169;51.262;6.336;2023-11-21T11:51:44;8.75;;;4.45;;
80776;SDS011;70169;51.262;6.336;2023-11-21T11:53:59;8.63;;;4.30;;
80776;SDS011;70169;51.262;6.336;2023-11-21T11:56:20;8.32;;;4.18;;
80776;SDS011;70169;51.262;6.336;2023-11-21T11:58:39;12.75;;;6.75;;
80776;SDS011;70169;51.262;6.336;2023-11-21T12:00:54;9.57;;;5.10;;
80776;SDS011;70169;51.262;6.336;2023-11-21T12:03:10;8.73;;;4.72;;
80776;SDS011;70169;51.262;6.336;2023-11-21T12:05:27;12.48;;;6.35;;
80776;SDS011;70169;51.262;6.336;2023-11-21T12:07:49;10.00;;;4.40;;
80776;SDS011;70169;51.262;6.336;2023-11-21T12:10:04;13.40;;;5.80;;
80776;SDS011;70169;51.262;6.336;2023-11-21T12:12:21;11.85;;;5.53;;
80776;SDS011;70169;51.262;6.336;2023-11-21T12:14:37;15.52;;;6.65;;
80776;SDS011;70169;51.262;6.336;2023-11-21T12:16:53;12.00;;;5.90;;
80776;SDS011;70169;51.262;6.336;2023-11-21T12:19:09;11.57;;;5.72;;
80776;SDS011;70169;51.262;6.336;2023-11-21T12:21:25;12.38;;;5.03;;
80776;SDS011;70169;51.262;6.336;2023-11-21T12:23:41;10.80;;;4.93;;
80776;SDS011;70169;51.262;6.336;2023-11-21T12:25:57;10.97;;;5.33;;
80776;SDS011;70169;51.262;6.336;2023-11-21T12:28:13;9.43;;;5.00;;
80776;SDS011;70169;51.262;6.336;2023-11-21T12:30:29;9.85;;;4.90;;
80776;SDS011;70169;51.262;6.336;2023-11-21T12:32:50;11.35;;;5.72;;
80776;SDS011;70169;51.262;6.336;2023-11-21T12:35:07;14.82;;;7.00;;
80776;SDS011;70169;51.262;6.336;2023-11-21T12:37:24;12.15;;;6.32;;
80776;SDS011;70169;51.262;6.336;2023-11-21T12:39:40;12.10;;;5.07;;
80776;SDS011;70169;51.262;6.336;2023-11-21T12:41:55;12.00;;;5.45;;
80776;SDS011;70169;51.262;6.336;2023-11-21T12:44:12;16.73;;;6.72;;
80776;SDS011;70169;51.262;6.336;2023-11-21T12:46:30;15.63;;;7.28;;
80776;SDS011;70169;51.262;6.336;2023-11-21T12:48:48;11.68;;;6.30;;
80776;SDS011;70169;51.262;6.336;2023-11-21T12:51:05;12.80;;;6.00;;
80776;SDS011;70169;51.262;6.336;2023-11-21T12:55:37;11.93;;;5.60;;
80776;SDS011;70169;51.262;6.336;2023-11-21T12:57:53;13.18;;;6.38;;
80776;SDS011;70169;51.262;6.336;2023-11-21T13:00:11;13.45;;;7.25;;
80776;SDS011;70169;51.262;6.336;2023-11-21T13:02:32;12.90;;;6.22;;
80776;SDS011;70169;51.262;6.336;2023-11-21T13:04:53;13.48;;;5.75;;
80776;SDS011;70169;51.262;6.336;2023-11-21T13:07:09;11.82;;;5.80;;
80776;SDS011;70169;51.262;6.336;2023-11-21T13:09:29;12.70;;;6.43;;
80776;SDS011;70169;51.262;6.336;2023-11-21T13:11:45;14.25;;;6.78;;
80776;SDS011;70169;51.262;6.336;2023-11-21T13:14:02;11.35;;;6.70;;
80776;SDS011;70169;51.262;6.336;2023-11-21T13:16:18;11.05;;;6.03;;
80776;SDS011;70169;51.262;6.336;2023-11-21T13:18:35;15.85;;;7.20;;
80776;SDS011;70169;51.262;6.336;2023-11-21T13:20:55;11.80;;;5.95;;
80776;SDS011;70169;51.262;6.336;2023-11-21T13:23:12;12.93;;;5.65;;
80776;SDS011;70169;51.262;6.336;2023-11-21T13:25:29;13.15;;;6.63;;
80776;SDS011;70169;51.262;6.336;2023-11-21T13:27:46;12.00;;;5.47;;
80776;SDS011;70169;51.262;6.336;2023-11-21T13:30:01;13.27;;;6.57;;
80776;SDS011;70169;51.262;6.336;2023-11-21T13:34:37;11.63;;;5.90;;
80776;SDS011;70169;51.262;6.336;2023-11-21T13:36:53;12.75;;;6.70;;
80776;SDS011;70169;51.262;6.336;2023-11-21T13:39:13;11.32;;;5.90;;
80776;SDS011;70169;51.262;6.336;2023-11-21T13:41:31;11.75;;;6.30;;
80776;SDS011;70169;51.262;6.336;2023-11-21T13:43:47;13.20;;;6.32;;
80776;SDS011;70169;51.262;6.336;2023-11-21T13:46:13;13.07;;;6.32;;
80776;SDS011;70169;51.262;6.336;2023-11-21T13:48:32;14.15;;;6.97;;
80776;SDS011;70169;51.262;6.336;2023-11-21T13:51:03;10.65;;;5.25;;
80776;SDS011;70169;51.262;6.336;2023-11-21T13:53:32;11.88;;;6.35;;